createdAt,value
2019-04-30T00:03:25.020Z,15.60
2019-04-30T00:08:35.444Z,15.00
2019-04-30T00:13:41.084Z,14.45
2019-04-30T00:18:58.213Z,11.53
2019-04-30T00:23:56.237Z,11.78
2019-04-30T00:29:05.008Z,10.03
2019-04-30T00:34:11.435Z,8.98
2019-04-30T00:39:17.959Z,8.90
2019-04-30T00:44:28.217Z,8.50
2019-04-30T00:49:32.980Z,7.60
2019-04-30T00:54:41.370Z,6.50
2019-04-30T00:59:48.150Z,5.85
2019-04-30T01:05:04.837Z,6.05
2019-04-30T01:10:07.021Z,5.78
2019-04-30T01:15:14.677Z,6.05
2019-04-30T01:20:31.046Z,5.45
2019-04-30T01:25:33.420Z,5.22
2019-04-30T01:30:40.512Z,5.45
2019-04-30T01:35:48.774Z,6.20
2019-04-30T01:40:55.464Z,5.90
2019-04-30T01:46:09.423Z,5.75
2019-04-30T01:51:13.328Z,5.03
2019-04-30T01:56:35.197Z,4.87
2019-04-30T02:01:43.872Z,4.57
2019-04-30T02:06:50.532Z,4.75
2019-04-30T02:11:57.059Z,5.20
2019-04-30T02:17:03.674Z,4.50
2019-04-30T02:22:10.285Z,4.40
2019-04-30T02:27:16.976Z,7.15
2019-04-30T02:32:25.287Z,5.80
2019-04-30T02:37:34.062Z,5.70
2019-04-30T02:42:41.175Z,5.78
2019-04-30T02:47:49.967Z,5.30
2019-04-30T02:53:02.589Z,5.75
2019-04-30T02:58:06.669Z,5.87
2019-04-30T03:03:13.285Z,5.33
2019-04-30T03:08:19.948Z,5.70
2019-04-30T03:13:29.711Z,6.70
2019-04-30T03:18:53.659Z,6.35
2019-04-30T03:24:00.721Z,6.15
2019-04-30T03:29:10.728Z,6.80
2019-04-30T03:34:24.182Z,6.75
2019-04-30T03:39:23.902Z,6.12
2019-04-30T03:44:32.391Z,6.75
2019-04-30T03:49:40.344Z,6.83
2019-04-30T03:54:49.361Z,6.20
2019-04-30T03:59:55.289Z,6.05
2019-04-30T04:05:21.030Z,5.85
2019-04-30T04:10:34.743Z,5.67
2019-04-30T04:20:50.174Z,5.08
2019-04-30T04:25:55.168Z,6.67
2019-04-30T04:31:01.711Z,6.83
2019-04-30T04:36:09.169Z,6.80
2019-04-30T04:41:15.961Z,6.30
2019-04-30T04:46:22.687Z,7.45
2019-04-30T04:51:38.075Z,6.80
2019-04-30T04:56:39.852Z,6.45
2019-04-30T05:01:45.632Z,6.87
2019-04-30T05:06:52.312Z,6.03
2019-04-30T05:12:08.589Z,6.40
2019-04-30T05:17:15.170Z,5.55
2019-04-30T05:22:21.696Z,5.55
2019-04-30T05:27:30.192Z,5.85
2019-04-30T05:32:36.471Z,5.40
2019-04-30T05:37:43.055Z,5.12
2019-04-30T05:42:49.766Z,4.78
2019-04-30T05:47:56.337Z,4.55
2019-04-30T05:53:03.298Z,4.90
2019-04-30T05:58:09.883Z,4.90
2019-04-30T06:03:27.671Z,4.80
2019-04-30T06:08:26.949Z,4.67
2019-04-30T06:14:01.658Z,4.10
2019-04-30T06:19:08.473Z,4.90
2019-04-30T06:24:16.005Z,4.42
2019-04-30T06:29:24.731Z,4.45
2019-04-30T06:34:32.477Z,4.90
2019-04-30T06:39:39.017Z,4.42
2019-04-30T06:44:45.916Z,4.33
2019-04-30T06:49:52.924Z,4.15
2019-04-30T06:54:59.694Z,4.75
2019-04-30T07:00:09.811Z,4.50
2019-04-30T07:05:18.206Z,4.22
2019-04-30T07:10:29.362Z,4.00
2019-04-30T07:15:36.265Z,4.75
2019-04-30T07:20:44.527Z,4.00
2019-04-30T07:25:51.733Z,4.30
2019-04-30T07:31:10.221Z,4.50
2019-04-30T07:36:06.868Z,4.58
2019-04-30T07:41:13.513Z,5.25
2019-04-30T07:46:21.040Z,4.87
2019-04-30T07:51:30.856Z,4.87
2019-04-30T07:56:38.816Z,4.72
2019-04-30T08:02:03.699Z,5.15
2019-04-30T08:06:52.422Z,4.20
2019-04-30T08:11:59.222Z,4.33
2019-04-30T08:17:05.916Z,4.22
2019-04-30T08:22:12.522Z,4.70
2019-04-30T08:27:19.641Z,4.40
2019-04-30T08:32:26.387Z,4.90
2019-04-30T08:37:33.028Z,4.78
2019-04-30T08:42:40.349Z,4.67
2019-04-30T08:47:49.114Z,4.25
2019-04-30T08:52:55.562Z,4.65
2019-04-30T08:58:10.016Z,4.83
2019-04-30T09:03:10.641Z,4.92
2019-04-30T09:08:19.362Z,4.75
2019-04-30T09:13:26.199Z,5.22
2019-04-30T09:18:32.797Z,4.65
2019-04-30T09:23:44.662Z,4.78
2019-04-30T09:28:49.487Z,4.80
2019-04-30T09:33:57.970Z,4.85
2019-04-30T09:39:08.788Z,4.87
2019-04-30T09:44:15.558Z,5.03
2019-04-30T09:49:22.181Z,4.92
2019-04-30T09:54:29.612Z,4.70
2019-04-30T09:59:36.569Z,5.37
2019-04-30T10:04:43.807Z,5.20
2019-04-30T10:09:51.026Z,5.00
2019-04-30T10:14:59.253Z,5.35
2019-04-30T10:20:09.114Z,5.12
2019-04-30T10:25:16.061Z,5.12
2019-04-30T10:30:29.127Z,4.67
2019-04-30T10:35:36.187Z,5.42
2019-04-30T10:40:42.838Z,5.03
2019-04-30T10:45:49.493Z,5.47
2019-04-30T10:50:56.058Z,6.87
2019-04-30T10:56:02.886Z,3.83
2019-04-30T11:01:09.679Z,5.92
2019-04-30T11:06:16.324Z,5.15
2019-04-30T11:11:23.076Z,4.42
2019-04-30T11:16:29.857Z,5.30
2019-04-30T11:21:36.639Z,5.70
2019-04-30T11:26:44.246Z,5.92
2019-04-30T11:31:57.528Z,5.67
2019-04-30T11:37:04.452Z,5.30
2019-04-30T11:42:12.155Z,6.25
2019-04-30T11:47:38.907Z,5.05
2019-04-30T11:52:45.577Z,5.50
2019-04-30T11:57:52.075Z,5.33
2019-04-30T12:02:59.376Z,5.12
2019-04-30T12:08:13.426Z,4.90
2019-04-30T12:13:27.375Z,4.47
2019-04-30T12:18:34.058Z,4.30
2019-04-30T12:23:40.778Z,3.98
2019-04-30T12:28:47.200Z,3.90
2019-04-30T12:33:53.944Z,4.15
2019-04-30T12:39:00.580Z,4.50
2019-04-30T12:44:08.707Z,4.17
2019-04-30T12:49:15.346Z,4.28
2019-04-30T12:54:30.833Z,3.77
2019-04-30T12:59:37.524Z,4.62
2019-04-30T13:04:44.254Z,3.85
2019-04-30T13:09:51.412Z,4.33
2019-04-30T13:15:01.982Z,4.12
2019-04-30T13:20:18.604Z,4.67
2019-04-30T13:25:28.178Z,4.40
2019-04-30T13:30:29.892Z,4.03
2019-04-30T13:35:38.822Z,4.15
2019-04-30T13:40:59.176Z,4.42
2019-04-30T13:46:05.818Z,3.92
2019-04-30T13:51:12.473Z,4.00
2019-04-30T13:56:20.256Z,4.47
2019-04-30T14:01:29.227Z,4.33
2019-04-30T14:06:38.904Z,4.10
2019-04-30T14:11:45.673Z,4.20
2019-04-30T14:16:52.606Z,3.70
2019-04-30T14:21:59.268Z,3.60
2019-04-30T14:27:06.313Z,3.70
2019-04-30T14:32:13.047Z,3.45
2019-04-30T14:37:19.692Z,3.50
2019-04-30T14:42:27.112Z,3.50
2019-04-30T14:47:42.451Z,3.00
2019-04-30T14:53:00.272Z,2.83
2019-04-30T14:58:20.388Z,3.60
2019-04-30T15:03:29.505Z,2.80
2019-04-30T15:08:36.157Z,2.85
2019-04-30T15:13:42.809Z,2.50
2019-04-30T15:18:49.449Z,2.08
2019-04-30T15:24:12.993Z,2.37
2019-04-30T15:34:25.771Z,2.75
2019-04-30T15:39:59.046Z,2.35
2019-04-30T15:45:06.104Z,2.60
2019-04-30T15:50:15.037Z,2.45
2019-04-30T15:55:21.458Z,2.20
2019-04-30T16:00:31.359Z,2.42
2019-04-30T16:05:44.201Z,2.37
2019-04-30T16:11:12.802Z,1.87
2019-04-30T16:16:19.397Z,1.80
2019-04-30T16:21:26.054Z,2.00
2019-04-30T16:26:32.667Z,1.87
2019-04-30T16:31:39.485Z,2.12
2019-04-30T16:36:46.129Z,3.30
2019-04-30T16:41:52.705Z,1.80
2019-04-30T16:46:59.705Z,2.15
2019-04-30T16:52:09.032Z,2.10
2019-04-30T16:57:15.617Z,2.02
2019-04-30T17:02:24.285Z,2.67
2019-04-30T17:07:41.698Z,2.80
2019-04-30T17:13:01.072Z,2.58
2019-04-30T17:18:11.594Z,2.75
2019-04-30T17:23:16.366Z,2.33
2019-04-30T17:28:23.101Z,2.22
2019-04-30T17:33:30.562Z,1.90
2019-04-30T17:38:37.399Z,1.95
2019-04-30T17:43:44.058Z,2.22
2019-04-30T17:48:50.693Z,2.12
2019-04-30T17:54:16.080Z,2.75
2019-04-30T17:59:22.694Z,4.00
2019-04-30T18:04:29.847Z,3.77
2019-04-30T18:09:36.465Z,3.80
2019-04-30T18:14:43.163Z,4.17
2019-04-30T18:19:56.960Z,3.37
2019-04-30T18:25:23.936Z,3.77
2019-04-30T18:30:35.735Z,4.55
2019-04-30T18:35:42.560Z,4.30
2019-04-30T18:40:49.610Z,5.17
2019-04-30T18:45:56.535Z,6.15
2019-04-30T18:51:18.969Z,7.58
2019-04-30T18:56:14.614Z,28.02
2019-04-30T19:01:20.025Z,16.02
2019-04-30T19:06:26.993Z,8.23
2019-04-30T19:11:42.882Z,9.23
2019-04-30T19:17:09.459Z,8.48
2019-04-30T19:22:15.926Z,10.48
2019-04-30T19:27:22.542Z,16.45
2019-04-30T19:32:30.493Z,29.85
2019-04-30T19:37:40.039Z,33.15
2019-04-30T19:42:48.254Z,33.23
2019-04-30T19:47:53.987Z,32.33
2019-04-30T19:53:00.601Z,30.55
2019-04-30T19:58:08.180Z,32.83
2019-04-30T20:03:14.818Z,32.25
2019-04-30T20:08:21.556Z,36.17
2019-04-30T20:13:36.524Z,53.17
2019-04-30T20:18:36.502Z,59.05
2019-04-30T20:23:43.193Z,57.70
2019-04-30T20:28:49.802Z,55.88
2019-04-30T20:33:56.458Z,52.88
2019-04-30T20:39:20.007Z,50.28
2019-04-30T20:44:26.590Z,56.08
2019-04-30T20:49:33.132Z,77.27
2019-04-30T20:54:39.743Z,72.55
2019-04-30T20:59:46.358Z,60.38
2019-04-30T21:04:52.831Z,53.65
2019-04-30T21:10:00.423Z,56.25
2019-04-30T21:15:09.703Z,48.10
2019-04-30T21:20:16.414Z,49.50
2019-04-30T21:25:23.070Z,51.23
2019-04-30T21:30:29.684Z,54.20
2019-04-30T21:35:42.551Z,51.53
2019-04-30T21:40:49.410Z,54.00
2019-04-30T21:45:56.017Z,57.67
2019-04-30T21:51:02.652Z,70.75
2019-04-30T21:56:09.099Z,70.47
2019-04-30T22:01:21.807Z,72.22
2019-04-30T22:06:29.629Z,76.67
2019-04-30T22:11:36.463Z,81.42
2019-04-30T22:16:43.151Z,81.82
2019-04-30T22:21:49.840Z,88.10
2019-04-30T22:26:56.341Z,97.67
2019-04-30T22:32:02.963Z,102.35
2019-04-30T22:37:09.596Z,93.92
2019-04-30T22:42:36.962Z,95.00
2019-04-30T22:47:43.638Z,86.55
2019-04-30T22:52:50.259Z,85.87
2019-04-30T22:57:56.926Z,78.17
2019-04-30T23:03:06.924Z,73.60
2019-04-30T23:08:13.580Z,68.95
2019-04-30T23:13:20.254Z,64.53
2019-04-30T23:18:27.477Z,63.40
2019-04-30T23:23:35.218Z,63.00
2019-04-30T23:28:41.850Z,65.03
2019-04-30T23:33:48.315Z,61.35
2019-04-30T23:38:55.868Z,65.70
2019-04-30T23:44:02.426Z,68.90
2019-04-30T23:49:09.041Z,68.35
2019-04-30T23:54:15.659Z,75.08
2019-04-30T23:59:22.284Z,75.25
